Time;durP1;ratioP1;P1;durP2;ratioP2;P2;SDS_P1;SDS_P2;PMS_P1;PMS_P2;Temp;Humidity;BMP_temperature;BMP_pressure;BME280_temperature;BME280_humidity;BME280_pressure;Samples;Min_cycle;Max_cycle;Signal;HPM_P1;HPM_P2
2022/05/19 00:00:26;;;;;;;30.48;22.83;;;18.80;99.90;;;;;;5052474;28;20578;-46
2022/05/19 00:02:52;;;;;;;29.63;21.13;;;18.70;99.90;;;;;;5052207;28;20119;-45
2022/05/19 00:05:17;;;;;;;31.73;23.10;;;18.60;99.90;;;;;;5050076;28;20037;-46
2022/05/19 00:07:43;;;;;;;30.85;22.95;;;18.50;99.90;;;;;;5064963;28;20049;-47
2022/05/19 00:10:09;;;;;;;25.48;22.70;;;18.50;99.90;;;;;;5059791;28;20083;-46
2022/05/19 00:12:35;;;;;;;30.27;21.63;;;18.40;99.90;;;;;;5058500;28;20029;-45
2022/05/19 00:15:00;;;;;;;;;;;18.50;99.90;;;;;;5053820;28;20453;-46
2022/05/19 00:17:26;;;;;;;29.05;22.45;;;18.50;99.90;;;;;;5058852;28;19925;-46
2022/05/19 00:19:52;;;;;;;27.52;22.67;;;18.50;99.90;;;;;;5067143;28;20051;-46
2022/05/19 00:22:17;;;;;;;28.95;23.00;;;18.50;99.90;;;;;;5057073;28;20484;-46
2022/05/19 00:24:43;;;;;;;30.13;23.85;;;18.50;99.90;;;;;;5061102;28;20127;-45
2022/05/19 00:27:08;;;;;;;27.33;22.52;;;18.50;99.90;;;;;;5055807;28;20033;-46
2022/05/19 00:29:34;;;;;;;32.28;22.73;;;18.60;99.90;;;;;;5066656;28;20494;-47
2022/05/19 00:32:00;;;;;;;26.45;21.65;;;18.60;99.90;;;;;;5057732;28;20178;-45
2022/05/19 00:34:25;;;;;;;27.55;23.30;;;18.50;99.90;;;;;;5061608;28;20040;-46
2022/05/19 00:36:58;;;;;;;34.13;22.58;;;18.60;99.90;;;;;;5056567;28;20033;-47
2022/05/19 00:39:24;;;;;;;26.52;23.25;;;18.60;99.90;;;;;;5056434;28;20039;-46
2022/05/19 00:42:43;;;;;;;30.45;23.58;;;18.70;99.90;;;;;;5060506;28;20037;-46
2022/05/19 00:44:35;;;;;;;32.00;22.02;;;18.70;99.90;;;;;;5057488;28;20471;-45
2022/05/19 00:47:01;;;;;;;26.50;22.25;;;18.70;99.90;;;;;;5062131;28;20036;-46
2022/05/19 00:49:40;;;;;;;25.70;22.58;;;18.70;99.90;;;;;;5059727;28;20106;-46
2022/05/19 00:52:36;;;;;;;27.92;21.13;;;18.70;99.90;;;;;;5063850;28;20404;-46
2022/05/19 00:55:07;;;;;;;29.35;22.13;;;18.70;99.90;;;;;;5059599;28;20045;-46
2022/05/19 00:57:37;;;;;;;28.48;22.42;;;18.70;99.90;;;;;;5053791;28;20047;-46
2022/05/19 01:00:11;;;;;;;25.58;22.27;;;18.70;99.90;;;;;;5063577;28;20235;-46
2022/05/19 01:02:57;;;;;;;25.83;21.73;;;18.60;99.90;;;;;;5059828;28;20040;-45
2022/05/19 01:05:44;;;;;;;26.92;22.23;;;18.60;99.90;;;;;;5060501;28;20161;-46
2022/05/19 01:08:34;;;;;;;26.55;22.40;;;18.60;99.90;;;;;;5066255;28;20040;-45
2022/05/19 01:11:01;;;;;;;27.40;22.65;;;18.50;99.90;;;;;;5056286;28;20053;-46
2022/05/19 01:13:30;;;;;;;31.77;23.08;;;18.50;99.90;;;;;;5060960;28;20064;-45
2022/05/19 01:15:57;;;;;;;27.83;22.73;;;18.50;99.90;;;;;;5064262;28;20041;-45
2022/05/19 01:18:26;;;;;;;29.55;21.15;;;18.40;99.90;;;;;;5062828;28;20047;-46
2022/05/19 01:20:52;;;;;;;29.67;24.13;;;18.40;99.90;;;;;;5062814;28;20071;-45
2022/05/19 01:23:36;;;;;;;32.40;27.00;;;18.30;99.90;;;;;;5061488;28;20352;-45
2022/05/19 01:26:32;;;;;;;33.53;25.85;;;18.20;99.90;;;;;;5065732;28;20457;-46
2022/05/19 01:28:58;;;;;;;28.80;24.73;;;18.10;99.90;;;;;;5066854;28;20123;-47
2022/05/19 01:31:49;;;;;;;31.92;25.33;;;18.10;99.90;;;;;;5059777;28;20087;-46
2022/05/19 01:34:16;;;;;;;34.30;27.30;;;18.10;99.90;;;;;;5061383;28;20044;-46
2022/05/19 01:36:42;;;;;;;32.42;28.05;;;18.10;99.90;;;;;;5063752;28;20055;-46
2022/05/19 01:39:11;;;;;;;35.45;28.17;;;18.10;99.90;;;;;;5060910;28;20120;-46
2022/05/19 01:41:51;;;;;;;35.60;27.52;;;18.10;99.90;;;;;;5054744;28;20119;-46
2022/05/19 01:44:34;;;;;;;32.38;27.27;;;18.10;99.90;;;;;;5053208;28;20044;-47
2022/05/19 01:47:09;;;;;;;33.58;27.15;;;18.10;99.90;;;;;;5058721;28;20044;-46
2022/05/19 01:49:47;;;;;;;41.22;27.73;;;18.10;99.90;;;;;;5054095;28;20476;-45
2022/05/19 01:52:23;;;;;;;35.60;28.92;;;18.10;99.90;;;;;;5055743;28;20674;-46
2022/05/19 01:55:05;;;;;;;35.85;26.90;;;18.00;99.90;;;;;;5068386;28;20040;-46
2022/05/19 01:57:39;;;;;;;30.10;25.45;;;18.00;99.90;;;;;;5061341;28;20632;-45
2022/05/19 02:00:16;;;;;;;34.40;25.42;;;18.00;99.90;;;;;;5069084;28;20049;-45
2022/05/19 02:02:54;;;;;;;27.00;23.38;;;17.90;99.90;;;;;;5056740;28;20044;-46
2022/05/19 02:05:46;;;;;;;35.28;25.40;;;17.90;99.90;;;;;;5062889;28;20517;-46
2022/05/19 02:08:27;;;;;;;37.78;28.88;;;17.90;99.90;;;;;;5056352;28;20135;-45
2022/05/19 02:10:55;;;;;;;30.20;26.33;;;17.80;99.90;;;;;;5068296;28;20044;-46
2022/05/19 02:13:22;;;;;;;35.13;29.08;;;17.90;99.90;;;;;;5060915;28;20389;-46
2022/05/19 02:15:51;;;;;;;37.55;27.42;;;17.90;99.90;;;;;;5065559;28;20119;-47
2022/05/19 02:18:20;;;;;;;34.53;29.75;;;17.90;99.90;;;;;;5067964;28;20036;-45
2022/05/19 02:20:47;;;;;;;36.85;28.02;;;17.90;99.90;;;;;;5059924;28;20033;-45
2022/05/19 02:23:15;;;;;;;38.30;29.67;;;17.90;99.90;;;;;;5063961;28;20078;-46
2022/05/19 02:25:45;;;;;;;41.83;30.30;;;17.80;99.90;;;;;;5066765;28;20045;-46
2022/05/19 02:28:16;;;;;;;38.95;30.77;;;17.80;99.90;;;;;;5060533;28;20057;-45
2022/05/19 02:30:43;;;;;;;44.45;31.92;;;17.80;99.90;;;;;;5066732;28;20475;-46
2022/05/19 02:33:11;;;;;;;36.85;29.30;;;17.80;99.90;;;;;;5066537;28;20032;-46
2022/05/19 02:35:37;;;;;;;37.55;31.60;;;17.70;99.90;;;;;;5058703;28;21219;-46
2022/05/19 02:38:03;;;;;;;35.72;30.27;;;17.70;99.90;;;;;;5055500;28;20432;-46
2022/05/19 02:40:31;;;;;;;39.58;31.67;;;17.70;99.90;;;;;;5053108;28;20066;-45
2022/05/19 02:42:57;;;;;;;41.08;31.98;;;17.70;99.90;;;;;;5069178;28;20269;-45
2022/05/19 02:45:23;;;;;;;43.45;32.33;;;17.70;99.90;;;;;;5067488;28;20056;-46
2022/05/19 02:47:49;;;;;;;;;;;17.60;99.90;;;;;;5062670;28;20045;-45
2022/05/19 02:50:16;;;;;;;36.25;30.10;;;17.60;99.90;;;;;;5062287;28;20282;-45
2022/05/19 02:52:42;;;;;;;43.80;32.80;;;17.60;99.90;;;;;;5057832;28;20379;-46
2022/05/19 02:55:08;;;;;;;36.50;31.20;;;17.50;99.90;;;;;;5061825;28;20108;-46
2022/05/19 02:57:33;;;;;;;;;;;17.40;99.90;;;;;;5058225;28;20082;-45
2022/05/19 02:59:59;;;;;;;40.42;31.63;;;17.40;99.90;;;;;;5063480;28;19959;-45
2022/05/19 03:02:25;;;;;;;41.13;34.17;;;17.40;99.90;;;;;;5068501;28;20075;-45
2022/05/19 03:04:51;;;;;;;47.38;36.58;;;17.30;99.90;;;;;;5070158;28;20298;-45
2022/05/19 03:07:16;;;;;;;52.67;36.30;;;17.30;99.90;;;;;;5061096;28;20044;-45
2022/05/19 03:09:42;;;;;;;43.95;34.22;;;17.30;99.90;;;;;;5064750;28;20436;-45
2022/05/19 03:12:12;;;;;;;49.15;37.35;;;17.30;99.90;;;;;;5064601;28;20037;-47
2022/05/19 03:14:38;;;;;;;47.10;38.00;;;17.20;99.90;;;;;;5063790;28;20037;-45
2022/05/19 03:17:05;;;;;;;;;;;17.20;99.90;;;;;;5056979;28;20037;-45
2022/05/19 03:19:30;;;;;;;46.63;37.10;;;17.10;99.90;;;;;;5061376;28;19917;-46
2022/05/19 03:21:56;;;;;;;49.45;40.15;;;17.10;99.90;;;;;;5066117;28;20051;-45
2022/05/19 03:24:21;;;;;;;49.03;39.92;;;17.00;99.90;;;;;;5056240;28;20040;-45
2022/05/19 03:26:47;;;;;;;59.28;42.58;;;17.00;99.90;;;;;;5066910;28;20437;-45
2022/05/19 03:29:12;;;;;;;55.75;42.42;;;17.00;99.90;;;;;;5062897;28;20524;-45
2022/05/19 03:31:38;;;;;;;51.88;41.05;;;17.00;99.90;;;;;;5055292;28;20044;-45
2022/05/19 03:34:04;;;;;;;53.38;40.80;;;17.00;99.90;;;;;;5061815;28;20033;-45
2022/05/19 03:36:30;;;;;;;56.78;42.95;;;17.00;99.90;;;;;;5059144;28;20037;-45
2022/05/19 03:38:56;;;;;;;53.25;41.25;;;17.00;99.90;;;;;;5057555;28;20067;-45
2022/05/19 03:41:22;;;;;;;51.30;40.97;;;17.00;99.90;;;;;;5058590;28;20060;-45
2022/05/19 03:43:48;;;;;;;;;;;17.00;99.90;;;;;;5053583;28;20052;-46
2022/05/19 03:46:14;;;;;;;52.17;39.67;;;17.00;99.90;;;;;;5062446;28;19924;-45
2022/05/19 03:48:40;;;;;;;50.55;41.22;;;17.00;99.90;;;;;;5060474;28;20033;-45
2022/05/19 03:51:16;;;;;;;47.65;40.08;;;17.10;99.90;;;;;;5064424;28;20374;-46
2022/05/19 03:53:41;;;;;;;51.03;40.70;;;17.10;99.90;;;;;;5062255;28;20041;-45
2022/05/19 03:56:07;;;;;;;53.03;41.05;;;17.10;99.90;;;;;;5052172;28;20044;-46
2022/05/19 03:58:32;;;;;;;51.55;40.05;;;17.10;99.90;;;;;;5062726;28;20579;-45
2022/05/19 04:00:58;;;;;;;48.22;40.42;;;17.00;99.90;;;;;;5064529;28;20482;-45
2022/05/19 04:03:24;;;;;;;53.10;42.90;;;17.00;99.90;;;;;;5056463;28;20539;-45
2022/05/19 04:05:49;;;;;;;51.58;41.85;;;17.00;99.90;;;;;;5064729;28;20044;-45
2022/05/19 04:08:15;;;;;;;57.03;44.33;;;17.00;99.90;;;;;;5055702;28;20047;-45
2022/05/19 04:10:44;;;;;;;66.78;43.95;;;17.00;99.90;;;;;;5058031;28;20094;-46
2022/05/19 04:13:11;;;;;;;52.20;41.67;;;16.90;99.90;;;;;;5059806;28;20086;-45
2022/05/19 04:15:37;;;;;;;50.75;41.15;;;16.90;99.90;;;;;;5056711;28;20036;-45
2022/05/19 04:18:03;;;;;;;55.72;42.83;;;16.90;99.90;;;;;;5065085;28;20494;-44
2022/05/19 04:20:30;;;;;;;53.30;44.05;;;17.00;99.90;;;;;;5066368;28;20071;-45
2022/05/19 04:22:57;;;;;;;50.50;43.55;;;17.00;99.90;;;;;;5056212;28;20047;-45
2022/05/19 04:25:22;;;;;;;57.70;44.67;;;17.00;99.90;;;;;;5060239;28;20355;-47
2022/05/19 04:27:48;;;;;;;48.92;43.42;;;17.00;99.90;;;;;;5053986;28;20041;-46
2022/05/19 04:30:14;;;;;;;51.70;42.47;;;17.10;99.90;;;;;;5057900;28;20041;-45
2022/05/19 04:32:41;;;;;;;50.65;43.10;;;17.00;99.90;;;;;;5058596;28;20559;-45
2022/05/19 04:35:07;;;;;;;51.25;43.10;;;17.10;99.90;;;;;;5056929;28;20123;-45
2022/05/19 04:37:32;;;;;;;53.22;44.13;;;17.10;99.90;;;;;;5049445;28;20051;-46
2022/05/19 04:40:01;;;;;;;52.00;44.20;;;17.10;99.90;;;;;;5054622;28;20393;-45
2022/05/19 04:42:27;;;;;;;55.60;46.47;;;17.20;99.90;;;;;;5056106;28;20040;-44
2022/05/19 04:44:56;;;;;;;51.50;45.83;;;17.20;99.90;;;;;;5056278;28;20041;-45
2022/05/19 04:47:22;;;;;;;60.95;44.65;;;17.30;99.90;;;;;;5058682;28;20036;-45
2022/05/19 04:49:48;;;;;;;51.25;41.20;;;17.40;99.90;;;;;;5058798;28;20032;-47
2022/05/19 04:52:13;;;;;;;44.35;38.17;;;17.40;99.90;;;;;;5059849;28;20115;-46
2022/05/19 04:54:39;;;;;;;48.03;40.80;;;17.50;99.90;;;;;;5054040;28;20036;-45
2022/05/19 04:57:05;;;;;;;44.58;39.03;;;17.50;99.90;;;;;;5067178;28;20127;-45
2022/05/19 04:59:39;;;;;;;45.47;38.30;;;17.60;99.90;;;;;;5054365;28;20049;-46
2022/05/19 05:02:05;;;;;;;46.67;38.45;;;17.70;99.90;;;;;;5057911;28;20494;-46
2022/05/19 05:04:30;;;;;;;;;;;17.80;99.90;;;;;;5059036;28;20076;-46
2022/05/19 05:06:57;;;;;;;41.30;34.00;;;17.80;99.90;;;;;;5055177;28;19959;-45
2022/05/19 05:09:23;;;;;;;41.65;34.58;;;17.90;99.90;;;;;;5062351;28;20044;-45
2022/05/19 05:11:49;;;;;;;41.17;33.10;;;17.90;99.90;;;;;;5056286;28;20094;-45
2022/05/19 05:14:16;;;;;;;35.47;30.20;;;18.00;99.90;;;;;;5053932;28;20063;-45
2022/05/19 05:16:43;;;;;;;27.92;24.17;;;18.10;99.90;;;;;;5062896;28;20044;-44
2022/05/19 05:19:09;;;;;;;31.23;25.90;;;18.20;99.90;;;;;;5052822;28;20051;-45
2022/05/19 05:21:34;;;;;;;32.67;24.83;;;18.30;99.90;;;;;;5065439;28;20405;-45
2022/05/19 05:24:00;;;;;;;26.85;23.80;;;18.40;99.90;;;;;;5054280;28;20475;-46
2022/05/19 05:26:26;;;;;;;27.92;22.55;;;18.60;99.90;;;;;;5065004;28;20052;-45
2022/05/19 05:28:51;;;;;;;22.60;20.30;;;18.70;99.90;;;;;;5066300;28;20128;-46
2022/05/19 05:31:17;;;;;;;20.77;18.27;;;18.90;99.90;;;;;;5055188;28;20119;-46
2022/05/19 05:33:42;;;;;;;21.10;18.90;;;19.10;99.90;;;;;;5059871;28;20108;-45
2022/05/19 05:36:08;;;;;;;21.35;19.02;;;19.20;99.90;;;;;;5061820;28;20086;-45
2022/05/19 05:38:33;;;;;;;18.40;16.35;;;19.30;99.90;;;;;;5058615;28;20033;-46
2022/05/19 05:41:01;;;;;;;20.88;18.65;;;19.30;99.90;;;;;;5060594;28;20048;-45
2022/05/19 05:43:27;;;;;;;22.17;16.80;;;19.40;99.90;;;;;;5058470;28;20056;-46
2022/05/19 05:45:53;;;;;;;23.83;18.33;;;19.40;99.90;;;;;;5058697;28;20049;-45
2022/05/19 05:48:19;;;;;;;16.92;14.43;;;19.50;99.90;;;;;;5061390;28;20114;-46
2022/05/19 05:50:44;;;;;;;20.23;15.35;;;19.60;99.90;;;;;;5063703;28;20119;-45
2022/05/19 05:53:10;;;;;;;17.15;15.35;;;19.60;99.90;;;;;;5066382;28;20032;-46
2022/05/19 05:55:39;;;;;;;17.23;15.52;;;19.70;99.90;;;;;;5059013;28;20111;-45
2022/05/19 05:58:09;;;;;;;15.88;14.23;;;19.90;99.90;;;;;;5067228;28;20393;-46
2022/05/19 06:00:35;;;;;;;20.88;14.65;;;20.00;99.90;;;;;;5060543;28;20052;-46
2022/05/19 06:03:01;;;;;;;;;;;20.20;99.90;;;;;;5058097;28;20029;-45
2022/05/19 06:05:26;;;;;;;15.38;13.40;;;20.30;99.90;;;;;;5056723;28;20343;-46
2022/05/19 06:07:52;;;;;;;;;;;20.40;99.90;;;;;;5058109;28;20045;-46
2022/05/19 06:10:18;;;;;;;13.32;11.77;;;20.50;99.90;;;;;;5056158;28;19970;-45
2022/05/19 06:12:43;;;;;;;;;;;20.50;99.90;;;;;;5064855;28;20040;-46
2022/05/19 06:15:11;;;;;;;13.60;12.13;;;20.50;99.90;;;;;;5055296;28;20008;-46
2022/05/19 06:17:39;;;;;;;15.95;11.55;;;20.50;99.90;;;;;;5056444;28;20409;-46
2022/05/19 06:20:07;;;;;;;13.32;11.75;;;20.40;99.90;;;;;;5068326;28;20552;-45
2022/05/19 06:22:33;;;;;;;16.83;12.02;;;20.40;99.90;;;;;;5067953;28;20056;-45
2022/05/19 06:24:58;;;;;;;16.10;10.15;;;20.40;99.90;;;;;;5058278;28;20033;-46
2022/05/19 06:27:24;;;;;;;;;;;20.40;99.90;;;;;;5060032;28;20044;-45
2022/05/19 06:29:49;;;;;;;11.63;8.20;;;20.50;99.90;;;;;;5065164;28;19916;-45
2022/05/19 06:32:15;;;;;;;;;;;20.50;99.90;;;;;;5072561;28;20044;-46
2022/05/19 06:34:40;;;;;;;9.35;8.38;;;20.60;99.90;;;;;;5059843;28;19917;-46
2022/05/19 06:37:06;;;;;;;;;;;20.70;99.90;;;;;;5059681;28;20102;-46
2022/05/19 06:39:31;;;;;;;12.82;7.28;;;20.70;99.90;;;;;;5070185;28;19916;-46
2022/05/19 06:42:02;;;;;;;;;;;20.90;99.90;;;;;;5068450;28;20115;-46
2022/05/19 06:44:34;;;;;;;13.45;6.68;;;21.00;99.90;;;;;;5070561;28;19927;-46
2022/05/19 06:47:00;;;;;;;7.60;5.18;;;21.20;99.90;;;;;;5054567;28;20049;-46
2022/05/19 06:49:26;;;;;;;;;;;21.30;99.90;;;;;;5054353;28;20033;-46
2022/05/19 06:51:52;;;;;;;9.27;5.47;;;21.40;99.90;;;;;;5057228;28;20480;-45
2022/05/19 06:54:18;;;;;;;;;;;21.40;99.90;;;;;;5065013;28;20033;-45
2022/05/19 06:56:43;;;;;;;6.35;5.22;;;21.40;99.90;;;;;;5057646;28;19921;-46
2022/05/19 06:59:09;;;;;;;;;;;21.40;99.90;;;;;;5062612;28;20051;-46
2022/05/19 07:01:35;;;;;;;5.32;4.45;;;21.40;99.90;;;;;;5069826;28;20377;-47
2022/05/19 07:04:00;;;;;;;;;;;21.40;99.90;;;;;;5070324;28;20055;-46
2022/05/19 07:06:26;;;;;;;4.50;4.10;;;21.40;99.90;;;;;;5054051;28;19940;-46
2022/05/19 07:08:52;;;;;;;4.28;3.88;;;21.40;99.90;;;;;;5051490;28;20468;-45
2022/05/19 07:11:26;;;;;;;;;;;21.50;99.90;;;;;;5061223;28;20032;-46
2022/05/19 07:14:06;;;;;;;6.50;4.38;;;21.60;99.90;;;;;;5066415;28;19921;-46
2022/05/19 07:16:32;;;;;;;7.40;4.78;;;21.80;99.90;;;;;;5071139;28;20032;-47
2022/05/19 07:21:43;;;;;;;5.38;4.22;;;21.90;99.90;;;;;;5070544;28;20405;-45
2022/05/19 07:24:16;;;;;;;6.35;3.85;;;22.00;99.90;;;;;;5063470;28;20040;-46
2022/05/19 07:26:49;;;;;;;7.05;4.57;;;22.00;99.90;;;;;;5068421;28;20049;-46
2022/05/19 07:29:16;;;;;;;7.68;4.22;;;22.00;99.90;;;;;;5067196;28;20056;-46
2022/05/19 07:31:42;;;;;;;8.85;4.18;;;21.90;99.90;;;;;;5069529;28;20082;-47
2022/05/19 07:34:11;;;;;;;5.63;4.15;;;21.90;99.90;;;;;;5054299;28;20036;-46
2022/05/19 07:36:36;;;;;;;4.43;3.78;;;21.90;99.90;;;;;;5049781;28;20068;-46
2022/05/19 07:39:02;;;;;;;;;;;21.90;99.90;;;;;;5067445;28;20473;-46
2022/05/19 07:41:30;;;;;;;3.80;3.50;;;21.80;99.30;;;;;;5070442;28;19920;-46
2022/05/19 07:43:57;;;;;;;3.85;3.45;;;21.80;99.90;;;;;;5054717;28;20106;-46
2022/05/19 07:46:27;;;;;;;8.07;4.82;;;21.80;99.90;;;;;;5049897;28;20041;-46
2022/05/19 07:48:54;;;;;;;4.88;4.38;;;21.80;99.90;;;;;;5065278;28;20468;-47
2022/05/19 07:51:21;;;;;;;4.68;4.22;;;21.80;99.90;;;;;;5070355;28;20036;-46
2022/05/19 07:53:47;;;;;;;4.78;3.30;;;21.80;99.90;;;;;;5056150;28;20135;-46
2022/05/19 07:56:13;;;;;;;;;;;21.70;99.90;;;;;;5052930;28;20251;-46
2022/05/19 07:58:38;;;;;;;7.22;4.00;;;21.70;99.90;;;;;;5052557;28;19962;-47
2022/05/19 08:01:04;;;;;;;;;;;21.70;99.90;;;;;;5069431;28;20040;-45
2022/05/19 08:03:29;;;;;;;11.55;4.22;;;21.70;99.90;;;;;;5062417;28;19991;-46
2022/05/19 08:05:55;;;;;;;;;;;21.60;99.90;;;;;;5072793;28;20071;-46
2022/05/19 08:08:21;;;;;;;5.30;3.70;;;21.60;99.90;;;;;;5062400;28;19923;-46
2022/05/19 08:10:46;;;;;;;;;;;21.70;99.90;;;;;;5062672;28;20036;-46
2022/05/19 08:15:56;;;;;;;9.05;3.80;;;21.80;99.90;;;;;;5061508;28;20037;-46
2022/05/19 08:18:23;;;;;;;;;;;21.80;99.90;;;;;;5051331;28;20045;-46
2022/05/19 08:20:53;;;;;;;5.30;4.05;;;21.80;99.90;;;;;;5090625;28;19916;-46
2022/05/19 08:23:27;;;;;;;5.45;4.35;;;21.90;99.90;;;;;;5077415;28;20045;-46
2022/05/19 08:25:53;;;;;;;5.68;3.67;;;21.90;99.90;;;;;;5054021;28;20465;-47
2022/05/19 08:28:20;;;;;;;4.80;4.30;;;21.90;99.90;;;;;;5068375;28;20409;-46
2022/05/19 08:30:48;;;;;;;6.97;4.95;;;22.00;99.90;;;;;;5062813;28;20036;-46
2022/05/19 08:33:16;;;;;;;4.93;4.45;;;22.00;99.90;;;;;;5056433;28;20061;-46
2022/05/19 08:35:42;;;;;;;7.40;5.15;;;22.10;99.90;;;;;;5061566;28;20047;-47
2022/05/19 08:38:07;;;;;;;;;;;22.20;99.90;;;;;;5052295;28;20141;-46
2022/05/19 08:40:39;;;;;;;4.93;4.40;;;22.20;99.90;;;;;;5050470;28;19920;-47
2022/05/19 08:43:06;;;;;;;8.13;5.13;;;22.20;99.90;;;;;;5052888;28;20437;-46
2022/05/19 08:45:40;;;;;;;8.50;5.22;;;22.20;99.90;;;;;;5051635;28;20079;-46
2022/05/19 08:48:21;;;;;;;11.05;5.47;;;22.30;99.90;;;;;;5068717;28;20037;-46
2022/05/19 08:51:05;;;;;;;6.93;5.47;;;22.40;99.90;;;;;;5063752;28;20029;-46
2022/05/19 08:53:38;;;;;;;5.95;5.20;;;22.40;99.90;;;;;;5069199;28;20036;-46
2022/05/19 08:56:31;;;;;;;8.77;6.15;;;22.40;99.90;;;;;;5060560;28;20041;-46
2022/05/19 08:59:28;;;;;;;11.48;6.93;;;22.40;99.90;;;;;;5051135;28;20120;-46
2022/05/19 09:02:00;;;;;;;6.43;5.82;;;22.40;99.90;;;;;;5061716;28;20041;-48
2022/05/19 09:04:54;;;;;;;6.85;5.85;;;22.50;99.90;;;;;;5065235;28;20033;-47
2022/05/19 09:10:51;;;;;;;7.78;6.53;;;22.50;99.90;;;;;;5050825;28;20052;-45
2022/05/19 09:13:31;;;;;;;15.63;7.88;;;22.60;99.90;;;;;;5055730;28;20071;-46
2022/05/19 09:15:58;;;;;;;8.07;6.45;;;22.70;99.90;;;;;;5049936;28;20063;-46
2022/05/19 09:18:33;;;;;;;8.80;7.10;;;22.80;99.90;;;;;;5049299;28;20036;-47
2022/05/19 09:21:00;;;;;;;10.52;7.70;;;22.90;99.90;;;;;;5051022;28;20037;-46
2022/05/19 09:23:26;;;;;;;10.25;7.47;;;22.90;99.90;;;;;;5059226;28;20101;-48
2022/05/19 09:26:02;;;;;;;10.38;7.63;;;22.90;99.90;;;;;;5062888;28;20033;-45
2022/05/19 09:28:28;;;;;;;7.60;6.80;;;23.00;99.90;;;;;;5066018;28;20041;-46
2022/05/19 09:30:55;;;;;;;;;;;23.00;99.90;;;;;;5061783;28;20302;-46
2022/05/19 09:33:22;;;;;;;;;;;23.20;99.90;;;;;;5065667;28;19920;-46
2022/05/19 09:35:55;;;;;;;9.20;7.22;;;23.30;99.90;;;;;;5063741;28;19916;-46
2022/05/19 09:38:38;;;;;;;10.32;7.95;;;23.40;99.50;;;;;;5068107;28;20037;-46
2022/05/19 09:41:24;;;;;;;11.82;6.63;;;23.60;99.20;;;;;;5067935;28;20041;-47
2022/05/19 09:43:55;;;;;;;9.23;6.50;;;23.80;99.20;;;;;;5061188;28;20028;-49
2022/05/19 09:46:21;;;;;;;10.63;6.47;;;23.90;98.80;;;;;;5055094;28;20398;-47
2022/05/19 09:48:55;;;;;;;9.05;6.43;;;24.00;98.50;;;;;;5067018;28;20064;-48
2022/05/19 09:51:21;;;;;;;8.82;5.20;;;24.20;98.40;;;;;;5065637;28;20052;-46
2022/05/19 09:53:53;;;;;;;10.80;7.10;;;24.30;97.70;;;;;;5067071;28;20405;-46
2022/05/19 09:56:22;;;;;;;10.82;7.57;;;24.30;97.50;;;;;;5058978;28;20059;-46
2022/05/19 09:59:07;;;;;;;17.77;7.85;;;24.40;96.90;;;;;;5060704;28;20441;-48
2022/05/19 10:01:39;;;;;;;24.10;7.40;;;24.40;96.50;;;;;;5059905;28;20405;-47
2022/05/19 10:04:14;;;;;;;12.93;8.20;;;24.50;97.00;;;;;;5059214;28;20045;-46
2022/05/19 10:06:51;;;;;;;15.10;9.95;;;24.60;96.70;;;;;;5058412;28;20124;-47
2022/05/19 10:09:21;;;;;;;7.15;5.93;;;24.70;96.10;;;;;;5059557;28;20055;-48
2022/05/19 10:11:53;;;;;;;9.82;5.80;;;24.70;95.50;;;;;;5065127;28;20064;-46
2022/05/19 10:14:26;;;;;;;6.20;5.18;;;24.70;95.00;;;;;;5054443;28;20517;-48
2022/05/19 10:17:18;;;;;;;10.18;6.30;;;24.70;94.60;;;;;;5064466;28;20090;-49
2022/05/19 10:20:06;;;;;;;8.05;7.22;;;24.60;94.70;;;;;;5056647;28;20040;-47
2022/05/19 10:23:02;;;;;;;8.70;7.80;;;24.60;94.50;;;;;;5061275;28;20669;-48
2022/05/19 10:25:34;;;;;;;9.23;8.32;;;24.70;94.20;;;;;;5059412;28;20040;-46
2022/05/19 10:31:35;;;;;;;5.72;4.75;;;24.90;93.80;;;;;;5071024;28;20040;-46
2022/05/19 10:34:38;;;;;;;5.97;4.70;;;24.90;92.70;;;;;;5038986;28;20127;-47
2022/05/19 10:37:36;;;;;;;3.47;3.25;;;24.90;93.00;;;;;;5067113;28;20424;-47
2022/05/19 10:40:18;;;;;;;6.22;4.50;;;24.90;92.40;;;;;;5066798;28;20040;-46
2022/05/19 10:43:03;;;;;;;5.03;3.85;;;24.90;91.80;;;;;;5052819;28;20406;-47
2022/05/19 10:45:37;;;;;;;5.32;4.00;;;24.90;91.80;;;;;;5053862;28;20352;-47
2022/05/19 10:48:28;;;;;;;9.90;4.55;;;25.00;91.50;;;;;;5053550;28;20041;-47
2022/05/19 10:51:27;;;;;;;7.88;4.40;;;25.00;91.80;;;;;;5034335;28;20059;-46
2022/05/19 10:54:12;;;;;;;7.38;4.85;;;25.00;92.30;;;;;;5068649;28;20119;-48
2022/05/19 10:56:46;;;;;;;4.40;3.88;;;25.00;92.00;;;;;;5051799;28;20379;-48
2022/05/19 10:59:28;;;;;;;9.75;3.90;;;25.00;92.00;;;;;;5054679;28;20037;-47
2022/05/19 11:01:59;;;;;;;5.82;4.43;;;25.00;91.90;;;;;;5057271;28;20166;-46
2022/05/19 11:04:44;;;;;;;5.07;4.57;;;25.00;92.00;;;;;;5053873;28;20317;-47
2022/05/19 11:07:34;;;;;;;6.45;4.05;;;25.10;92.20;;;;;;5053574;28;20041;-47
2022/05/19 11:10:22;;;;;;;154.27;12.02;;;25.20;91.00;;;;;;5060679;28;20040;-47
2022/05/19 11:13:14;;;;;;;5.13;4.45;;;25.30;91.80;;;;;;5062755;28;20083;-47
2022/05/19 11:15:50;;;;;;;5.95;3.70;;;25.50;91.20;;;;;;5060692;28;20033;-47
2022/05/19 11:18:24;;;;;;;7.07;4.10;;;25.70;91.70;;;;;;5053644;28;20037;-48
2022/05/19 11:20:54;;;;;;;6.05;3.25;;;25.80;91.40;;;;;;5062370;28;20639;-47
2022/05/19 11:23:37;;;;;;;3.97;3.53;;;26.00;91.40;;;;;;5061794;28;20079;-48
2022/05/19 11:26:24;;;;;;;4.85;3.78;;;26.10;90.60;;;;;;5051968;28;20033;-47
2022/05/19 11:29:08;;;;;;;522.75;43.03;;;26.20;90.20;;;;;;5051978;28;20041;-47
2022/05/19 11:32:01;;;;;;;17.00;5.15;;;26.30;90.00;;;;;;5050631;28;20403;-47
2022/05/19 11:34:35;;;;;;;183.68;16.88;;;26.40;88.20;;;;;;5056574;28;20037;-47
2022/05/19 11:37:30;;;;;;;17.05;5.30;;;26.40;88.60;;;;;;5055624;28;20105;-46
2022/05/19 11:40:02;;;;;;;7.70;3.65;;;26.40;88.00;;;;;;5060992;28;20085;-47
2022/05/19 11:42:32;;;;;;;5.32;3.30;;;26.40;88.40;;;;;;5058739;28;20518;-47
2022/05/19 11:44:58;;;;;;;4.90;3.17;;;26.40;87.20;;;;;;5050629;28;20059;-48
2022/05/19 11:55:50;;;;;;;4.30;1.90;;;26.70;82.70;;;;;;5051569;28;20041;-47
2022/05/19 11:58:21;;;;;;;6.90;2.60;;;26.70;84.30;;;;;;5054005;28;20108;-47
2022/05/19 12:00:50;;;;;;;4.00;1.45;;;26.70;82.50;;;;;;5050465;28;20029;-48
2022/05/19 12:03:43;;;;;;;3.33;2.08;;;26.70;83.70;;;;;;5058175;28;20037;-48
2022/05/19 12:06:12;;;;;;;2.88;1.27;;;26.60;83.60;;;;;;5051647;28;20107;-48
2022/05/19 12:08:55;;;;;;;1.80;1.00;;;26.60;81.20;;;;;;5062811;28;20402;-47
2022/05/19 12:11:33;;;;;;;2.35;0.85;;;26.50;78.40;;;;;;5048314;28;20048;-48
2022/05/19 12:14:11;;;;;;;2.78;0.82;;;26.40;78.30;;;;;;5061595;28;20040;-47
2022/05/19 12:16:52;;;;;;;127.47;10.60;;;26.40;78.90;;;;;;5050332;28;20040;-47
2022/05/19 12:19:39;;;;;;;395.80;33.50;;;26.40;80.30;;;;;;5057433;28;20036;-47
2022/05/19 12:22:16;;;;;;;166.25;13.18;;;26.40;78.70;;;;;;5067321;28;20443;-47
2022/05/19 12:24:58;;;;;;;4.47;1.52;;;26.40;80.70;;;;;;5057065;28;20047;-47
2022/05/19 12:27:29;;;;;;;1.67;1.23;;;26.40;80.30;;;;;;5059998;28;20037;-47
2022/05/19 12:31:56;;;;;;;2.50;0.70;;;26.30;80.50;;;;;;5054058;28;20037;-47
2022/05/19 12:33:11;;;;;;;3.00;0.60;;;26.20;80.90;;;;;;5060638;28;20631;-48
2022/05/19 12:35:38;;;;;;;3.10;0.80;;;26.20;81.50;;;;;;5062992;28;20042;-48
2022/05/19 12:38:25;;;;;;;2.35;1.00;;;26.10;79.40;;;;;;5070174;28;20037;-47
2022/05/19 12:40:57;;;;;;;2.78;0.90;;;26.10;79.80;;;;;;5056464;28;20103;-48
2022/05/19 12:43:23;;;;;;;9.10;0.73;;;25.90;78.70;;;;;;5049594;28;20112;-48
2022/05/19 12:45:54;;;;;;;1.48;0.60;;;25.80;78.90;;;;;;5053891;28;20203;-46
2022/05/19 12:48:25;;;;;;;20.23;2.28;;;25.70;78.30;;;;;;5050170;28;20068;-47
2022/05/19 12:51:16;;;;;;;3.25;0.65;;;25.50;79.50;;;;;;5055778;28;20401;-48
2022/05/19 12:53:51;;;;;;;7.10;1.10;;;25.40;79.00;;;;;;5069800;28;20058;-47
2022/05/19 12:56:45;;;;;;;130.52;9.80;;;25.20;80.40;;;;;;5062378;28;20060;-47
2022/05/19 12:59:23;;;;;;;8.38;2.63;;;25.10;83.40;;;;;;5072688;28;20510;-48
2022/05/19 13:01:56;;;;;;;8.00;1.70;;;24.80;85.20;;;;;;5066656;28;20611;-47
2022/05/19 13:04:36;;;;;;;9.52;2.50;;;24.50;87.40;;;;;;5072526;28;20052;-50
2022/05/19 13:07:28;;;;;;;6.55;2.80;;;24.20;89.00;;;;;;5062756;28;20077;-47
2022/05/19 13:10:07;;;;;;;4.55;1.98;;;23.90;91.10;;;;;;5053165;28;20615;-47
2022/05/19 13:13:01;;;;;;;5.55;2.42;;;23.70;92.70;;;;;;5057677;28;20037;-48
2022/05/19 13:15:33;;;;;;;3.42;2.28;;;23.60;94.60;;;;;;5068980;28;20048;-49
2022/05/19 13:18:06;;;;;;;4.97;2.72;;;23.50;96.00;;;;;;5056709;28;20041;-48
2022/05/19 13:20:38;;;;;;;4.30;2.72;;;23.30;96.70;;;;;;5057760;28;20090;-49
2022/05/19 13:23:27;;;;;;;5.35;3.35;;;23.20;98.20;;;;;;5061773;28;20129;-47
2022/05/19 13:25:58;;;;;;;9.05;4.75;;;23.10;99.20;;;;;;5063332;28;20045;-47